Time;durP1;ratioP1;P1;durP2;ratioP2;P2;SDS_P1;SDS_P2;PMS_P1;PMS_P2;Temp;Humidity;BMP_temperature;BMP_pressure;BME280_temperature;BME280_humidity;BME280_pressure;Samples;Min_cycle;Max_cycle;Signal;HPM_P1;HPM_P2
2022/01/29 00:01:47;;;;;;;23.77;11.55;;;5.60;99.90;;;;;;7175287;32;20113;-62
2022/01/29 00:05:49;;;;;;;25.70;10.25;;;5.60;99.90;;;;;;7160112;32;20558;-63
2022/01/29 00:09:51;;;;;;;22.00;12.00;;;5.70;99.90;;;;;;7177850;32;20140;-61
2022/01/29 00:13:53;;;;;;;26.05;12.27;;;5.70;99.90;;;;;;7171350;32;20251;-62
2022/01/29 00:17:55;;;;;;;29.70;13.23;;;5.70;99.90;;;;;;7173584;33;20263;-61
2022/01/29 00:21:58;;;;;;;28.48;12.55;;;5.70;99.90;;;;;;7175997;32;20779;-61
2022/01/29 00:26:00;;;;;;;30.17;13.93;;;5.70;99.90;;;;;;7178004;32;20110;-61
2022/01/29 00:30:08;;;;;;;23.52;12.15;;;5.70;99.90;;;;;;7176986;32;20114;-61
2022/01/29 00:34:10;;;;;;;28.10;13.60;;;5.70;99.90;;;;;;7168604;32;20575;-61
2022/01/29 00:38:11;;;;;;;28.87;15.25;;;5.70;99.90;;;;;;7171848;32;20132;-61
2022/01/29 00:42:13;;;;;;;32.70;14.55;;;5.70;99.90;;;;;;7173008;32;20772;-61
2022/01/29 00:46:18;;;;;;;29.98;15.70;;;5.70;99.90;;;;;;7175731;32;20098;-61
2022/01/29 00:50:19;;;;;;;39.30;16.95;;;5.70;99.90;;;;;;7177534;32;20136;-62
2022/01/29 00:54:21;;;;;;;32.00;15.70;;;5.80;99.90;;;;;;7174792;32;20131;-61
2022/01/29 00:58:23;;;;;;;31.05;14.68;;;5.80;99.90;;;;;;7175494;32;20147;-61
2022/01/29 01:02:25;;;;;;;32.30;16.33;;;5.80;99.90;;;;;;7169475;32;20264;-61
2022/01/29 01:06:27;;;;;;;32.80;16.37;;;5.80;99.90;;;;;;7177521;32;20136;-61
2022/01/29 01:10:28;;;;;;;37.20;18.00;;;5.80;99.90;;;;;;7177260;33;20109;-61
2022/01/29 01:14:30;;;;;;;35.40;16.85;;;5.90;99.90;;;;;;7176540;33;20113;-61
2022/01/29 01:18:32;;;;;;;29.20;15.80;;;5.80;99.90;;;;;;7176869;32;20521;-61
2022/01/29 01:22:33;;;;;;;35.28;16.62;;;5.90;99.90;;;;;;7174556;33;20195;-61
2022/01/29 01:26:35;;;;;;;37.85;18.90;;;5.90;99.90;;;;;;7174960;33;20109;-61
2022/01/29 01:30:37;;;;;;;36.15;17.92;;;5.90;99.90;;;;;;7176297;33;20109;-62
2022/01/29 01:34:44;;;;;;;34.38;17.55;;;5.90;99.90;;;;;;7175631;33;20452;-61
2022/01/29 01:38:51;;;;;;;34.00;17.42;;;6.00;99.90;;;;;;7177291;33;20106;-61
2022/01/29 01:42:59;;;;;;;35.28;17.05;;;6.00;99.90;;;;;;7172792;32;20109;-61
2022/01/29 01:47:01;;;;;;;38.88;19.00;;;6.00;99.90;;;;;;7182032;32;20109;-61
2022/01/29 01:51:02;;;;;;;28.38;16.87;;;5.90;99.90;;;;;;7178336;32;20133;-60
2022/01/29 01:55:05;;;;;;;32.25;17.85;;;5.90;99.90;;;;;;7172230;32;20560;-60
2022/01/29 01:59:06;;;;;;;35.20;17.62;;;5.90;99.90;;;;;;7178836;32;20217;-62
2022/01/29 02:03:09;;;;;;;31.62;17.45;;;5.90;99.90;;;;;;7165420;32;20105;-60
2022/01/29 02:07:10;;;;;;;28.30;16.25;;;6.00;99.90;;;;;;7178996;32;20133;-61
2022/01/29 02:11:12;;;;;;;31.62;17.55;;;6.00;99.90;;;;;;7180220;32;20492;-61
2022/01/29 02:15:15;;;;;;;36.42;16.30;;;6.00;99.90;;;;;;7171944;32;20110;-59
2022/01/29 02:19:17;;;;;;;32.22;16.17;;;6.00;99.90;;;;;;7174644;32;20113;-60
2022/01/29 02:23:19;;;;;;;28.55;15.80;;;6.00;99.90;;;;;;7178245;32;20247;-60
2022/01/29 02:27:21;;;;;;;31.37;17.45;;;6.00;99.90;;;;;;7179339;32;20113;-61
2022/01/29 02:31:23;;;;;;;36.70;16.35;;;6.10;99.90;;;;;;7180172;32;20114;-60
2022/01/29 02:35:26;;;;;;;29.85;16.08;;;6.00;99.90;;;;;;7178051;32;20224;-60
2022/01/29 02:39:40;;;;;;;30.42;16.98;;;6.00;99.90;;;;;;7178944;32;20112;-60
2022/01/29 02:43:48;;;;;;;30.60;16.48;;;6.00;99.90;;;;;;7176219;32;20113;-60
2022/01/29 02:47:50;;;;;;;32.45;16.67;;;6.00;99.90;;;;;;7180523;32;20110;-60
2022/01/29 02:51:57;;;;;;;34.05;15.93;;;6.00;99.90;;;;;;7179227;32;20232;-60
2022/01/29 02:55:59;;;;;;;36.20;17.27;;;6.00;99.90;;;;;;7182498;32;20121;-60
2022/01/29 03:00:01;;;;;;;31.42;16.58;;;6.00;99.90;;;;;;7176567;32;20848;-60
2022/01/29 03:04:04;;;;;;;29.90;15.55;;;6.00;99.90;;;;;;7177995;32;20128;-61
2022/01/29 03:08:05;;;;;;;31.87;17.35;;;6.00;99.90;;;;;;7176317;32;20200;-60
2022/01/29 03:12:07;;;;;;;31.25;16.50;;;6.00;99.90;;;;;;7178414;32;20180;-60
2022/01/29 03:16:09;;;;;;;35.03;16.70;;;6.00;99.90;;;;;;7179061;32;20106;-61
2022/01/29 03:20:11;;;;;;;29.10;16.50;;;6.00;99.90;;;;;;7176402;32;20133;-61
2022/01/29 03:24:13;;;;;;;37.13;16.45;;;6.00;99.90;;;;;;7178174;32;20584;-61
2022/01/29 03:28:14;;;;;;;27.30;13.85;;;6.00;99.90;;;;;;7180420;32;20106;-61
2022/01/29 03:32:16;;;;;;;26.55;15.07;;;5.90;99.90;;;;;;7173142;32;20223;-60
2022/01/29 03:36:18;;;;;;;28.48;15.45;;;5.90;99.90;;;;;;7170303;32;20175;-60
2022/01/29 03:40:20;;;;;;;35.33;16.45;;;5.90;99.90;;;;;;7172497;32;20148;-61
2022/01/29 03:44:21;;;;;;;34.05;14.45;;;5.90;99.90;;;;;;7176069;32;20118;-61
2022/01/29 03:48:23;;;;;;;31.73;15.85;;;5.90;99.90;;;;;;7183309;32;20133;-60
2022/01/29 03:52:29;;;;;;;29.95;16.27;;;5.90;99.90;;;;;;7176254;32;20235;-60
2022/01/29 03:56:31;;;;;;;24.58;15.15;;;6.00;99.90;;;;;;7170414;32;20233;-62
2022/01/29 04:00:33;;;;;;;27.35;15.38;;;6.00;99.90;;;;;;7174197;32;20110;-60
2022/01/29 04:04:34;;;;;;;26.95;14.10;;;6.00;99.90;;;;;;7175435;32;20200;-61
2022/01/29 04:08:41;;;;;;;23.27;13.65;;;6.10;99.90;;;;;;7162904;32;20529;-60
2022/01/29 04:12:47;;;;;;;25.50;14.07;;;6.10;99.90;;;;;;7177466;32;20242;-60
2022/01/29 04:16:49;;;;;;;27.42;14.50;;;6.10;99.90;;;;;;7178654;32;20746;-60
2022/01/29 04:20:50;;;;;;;21.90;13.73;;;6.10;99.90;;;;;;7182066;32;20181;-59
2022/01/29 04:24:52;;;;;;;26.73;12.45;;;6.10;99.90;;;;;;7162527;32;20755;-60
2022/01/29 04:28:54;;;;;;;23.17;13.20;;;6.10;99.90;;;;;;7172880;32;20352;-61
2022/01/29 04:37:02;;;;;;;24.15;13.18;;;6.10;99.90;;;;;;7173657;32;20109;-60
2022/01/29 04:41:05;;;;;;;23.38;12.68;;;6.10;99.90;;;;;;7171322;32;20098;-61
2022/01/29 04:45:07;;;;;;;24.17;13.62;;;6.10;99.90;;;;;;7172342;32;20113;-60
2022/01/29 04:49:09;;;;;;;21.45;12.75;;;6.10;99.90;;;;;;7171065;32;20184;-61
2022/01/29 04:53:11;;;;;;;21.08;13.23;;;6.10;99.90;;;;;;7170093;32;20128;-61
2022/01/29 04:57:12;;;;;;;24.10;12.57;;;6.00;99.90;;;;;;7170881;32;20101;-60
2022/01/29 05:01:14;;;;;;;23.45;12.93;;;6.00;99.90;;;;;;7176351;32;20522;-61
2022/01/29 05:05:16;;;;;;;21.48;12.07;;;6.00;99.90;;;;;;7162147;33;20476;-60
2022/01/29 05:09:18;;;;;;;24.40;12.65;;;6.00;99.90;;;;;;7179225;33;20136;-61
2022/01/29 05:13:25;;;;;;;19.77;11.20;;;6.00;99.90;;;;;;7178368;32;20607;-61
2022/01/29 05:30:10;;;;;;;17.95;10.50;;;6.00;99.90;;;;;;7171324;33;20578;-60
2022/01/29 05:34:12;;;;;;;21.12;10.13;;;6.00;99.90;;;;;;7176702;33;20782;-60
2022/01/29 05:38:13;;;;;;;17.02;9.32;;;6.00;99.90;;;;;;7175337;33;20114;-61
2022/01/29 05:42:15;;;;;;;18.42;11.02;;;6.00;99.90;;;;;;7174991;33;20106;-61
2022/01/29 05:46:17;;;;;;;17.00;9.93;;;6.00;99.90;;;;;;7172509;33;20133;-61
2022/01/29 05:50:19;;;;;;;18.83;11.52;;;6.00;99.90;;;;;;7174283;33;20250;-61
2022/01/29 05:54:21;;;;;;;19.62;10.85;;;6.00;99.90;;;;;;7168531;33;20272;-61
2022/01/29 05:58:22;;;;;;;17.15;10.57;;;6.10;99.90;;;;;;7179465;33;20124;-61
2022/01/29 06:02:24;;;;;;;16.75;10.43;;;6.10;99.90;;;;;;7151430;33;20689;-61
2022/01/29 06:06:26;;;;;;;18.20;9.40;;;6.10;99.90;;;;;;7148430;33;20240;-61
2022/01/29 06:10:28;;;;;;;19.83;10.32;;;6.10;99.90;;;;;;7147257;33;20621;-61
2022/01/29 06:14:30;;;;;;;12.98;9.27;;;6.20;99.90;;;;;;7146620;33;20111;-61
2022/01/29 06:18:33;;;;;;;13.77;8.95;;;6.20;99.90;;;;;;7155435;33;20129;-61
2022/01/29 06:22:34;;;;;;;15.65;8.95;;;6.30;99.90;;;;;;7150630;33;20124;-61
2022/01/29 06:26:36;;;;;;;12.27;8.88;;;6.30;99.90;;;;;;7152576;33;20133;-61
2022/01/29 06:30:38;;;;;;;13.30;9.20;;;6.30;99.90;;;;;;7151787;33;20757;-60
2022/01/29 06:34:39;;;;;;;14.63;9.27;;;6.40;99.90;;;;;;7153621;33;20105;-62
2022/01/29 06:38:41;;;;;;;16.25;10.30;;;6.40;99.90;;;;;;7149832;33;20134;-61
2022/01/29 06:42:43;;;;;;;14.90;9.57;;;6.40;99.90;;;;;;7154791;33;20152;-61
2022/01/29 06:46:44;;;;;;;13.50;9.63;;;6.40;99.90;;;;;;7155033;33;20210;-61
2022/01/29 06:50:46;;;;;;;16.50;9.48;;;6.50;99.90;;;;;;7146113;33;20273;-62
2022/01/29 06:54:48;;;;;;;16.48;11.18;;;6.50;99.90;;;;;;7153183;33;20109;-60
2022/01/29 06:58:49;;;;;;;18.40;11.82;;;6.50;99.90;;;;;;7156194;33;20148;-60
2022/01/29 07:03:11;;;;;;;16.05;11.30;;;6.50;99.90;;;;;;7177330;32;20578;-61
2022/01/29 07:07:13;;;;;;;19.02;12.00;;;6.60;99.90;;;;;;7180980;32;20236;-60
2022/01/29 07:11:18;;;;;;;17.10;11.07;;;6.60;99.90;;;;;;7178401;32;20520;-61
2022/01/29 07:15:20;;;;;;;18.87;12.13;;;6.70;99.90;;;;;;7177009;32;20690;-61
2022/01/29 07:19:22;;;;;;;20.45;13.40;;;6.70;99.90;;;;;;7174999;32;20132;-60
2022/01/29 07:23:23;;;;;;;20.83;12.75;;;6.70;99.90;;;;;;7174235;32;20125;-58
2022/01/29 07:27:25;;;;;;;17.37;11.98;;;6.70;99.90;;;;;;7171201;32;20127;-60
2022/01/29 07:31:27;;;;;;;19.10;12.77;;;6.80;99.90;;;;;;7174788;32;20156;-61
2022/01/29 07:35:28;;;;;;;18.30;11.93;;;6.70;99.90;;;;;;7178965;32;20114;-60
2022/01/29 07:39:30;;;;;;;18.35;11.90;;;6.80;99.90;;;;;;7178225;32;20110;-59
2022/01/29 07:43:32;;;;;;;18.52;12.60;;;6.90;99.90;;;;;;7176821;32;20474;-58
2022/01/29 07:47:34;;;;;;;17.25;12.37;;;6.90;99.90;;;;;;7180598;32;20113;-59
2022/01/29 07:51:36;;;;;;;15.82;11.07;;;6.90;99.90;;;;;;7169606;32;20268;-60
2022/01/29 07:55:38;;;;;;;18.77;13.00;;;6.90;99.90;;;;;;7178039;32;20509;-59
2022/01/29 07:59:40;;;;;;;17.00;11.63;;;7.00;99.90;;;;;;7173732;32;20143;-59
2022/01/29 08:03:44;;;;;;;16.50;11.38;;;7.00;99.90;;;;;;7177664;32;20703;-59
2022/01/29 08:07:46;;;;;;;19.02;12.63;;;7.00;99.90;;;;;;7175986;32;20328;-60
2022/01/29 08:11:47;;;;;;;16.25;11.25;;;7.00;99.90;;;;;;7175665;32;20107;-60
2022/01/29 08:15:49;;;;;;;18.08;11.70;;;7.10;99.90;;;;;;7175181;32;20105;-60
2022/01/29 08:19:51;;;;;;;15.27;11.27;;;7.00;99.90;;;;;;7176083;32;20117;-60
2022/01/29 08:23:52;;;;;;;15.38;11.50;;;7.10;99.90;;;;;;7172745;32;20216;-60
2022/01/29 08:27:54;;;;;;;17.60;12.23;;;7.10;99.90;;;;;;7178017;32;20160;-60
2022/01/29 08:31:56;;;;;;;16.00;11.50;;;7.20;99.90;;;;;;7175995;32;20199;-61
2022/01/29 08:35:59;;;;;;;17.33;11.32;;;7.20;99.90;;;;;;7170659;32;20109;-59
2022/01/29 08:40:00;;;;;;;14.57;10.93;;;7.20;99.90;;;;;;7179361;32;20109;-60
2022/01/29 08:44:02;;;;;;;15.77;10.90;;;7.30;99.90;;;;;;7179243;32;20560;-60
2022/01/29 08:48:05;;;;;;;15.98;12.50;;;7.30;99.90;;;;;;7177587;32;20101;-60
2022/01/29 08:52:06;;;;;;;15.98;10.98;;;7.40;99.90;;;;;;7179951;32;20242;-61
2022/01/29 08:56:09;;;;;;;14.00;10.15;;;7.40;99.90;;;;;;7176798;32;20114;-59
2022/01/29 09:00:18;;;;;;;15.05;10.93;;;7.40;99.90;;;;;;7177144;32;20144;-60
2022/01/29 09:04:19;;;;;;;15.63;11.20;;;7.50;99.90;;;;;;7154784;33;20109;-59
2022/01/29 09:08:21;;;;;;;15.55;10.48;;;7.50;99.90;;;;;;7161390;33;20176;-60
2022/01/29 09:12:23;;;;;;;15.43;11.43;;;7.50;99.90;;;;;;7161361;33;20114;-60
2022/01/29 09:16:24;;;;;;;15.25;11.15;;;7.50;99.90;;;;;;7158771;33;20098;-60
2022/01/29 09:20:27;;;;;;;14.13;10.93;;;7.60;99.90;;;;;;7148473;33;21033;-60
2022/01/29 09:24:28;;;;;;;15.25;10.68;;;7.60;99.90;;;;;;7145541;33;20110;-61
2022/01/29 09:28:30;;;;;;;14.35;10.65;;;7.60;99.90;;;;;;7157989;33;20117;-59
2022/01/29 09:32:32;;;;;;;14.23;10.65;;;7.60;99.90;;;;;;7149219;33;20133;-59
2022/01/29 09:36:35;;;;;;;15.25;10.93;;;7.70;99.90;;;;;;7159843;33;20202;-59
2022/01/29 09:40:37;;;;;;;14.25;11.12;;;7.70;99.90;;;;;;7148084;33;20656;-59
2022/01/29 09:44:40;;;;;;;16.40;11.10;;;7.80;99.90;;;;;;7161556;33;20478;-59
2022/01/29 09:48:43;;;;;;;15.13;10.50;;;7.80;99.90;;;;;;7143215;33;20114;-59
2022/01/29 09:52:45;;;;;;;14.40;10.57;;;7.80;99.90;;;;;;7148619;33;20111;-59
2022/01/29 09:56:47;;;;;;;14.10;10.55;;;7.90;99.90;;;;;;7152202;33;20231;-60
2022/01/29 10:00:48;;;;;;;12.23;9.93;;;7.90;99.90;;;;;;7164219;33;20216;-60
2022/01/29 10:04:53;;;;;;;13.57;10.27;;;8.00;99.90;;;;;;7183619;32;20189;-60
2022/01/29 10:08:55;;;;;;;13.40;9.48;;;8.00;99.90;;;;;;7182920;32;20109;-60
2022/01/29 10:12:57;;;;;;;15.52;10.35;;;8.00;99.90;;;;;;7184641;32;20188;-60
2022/01/29 10:17:04;;;;;;;13.68;9.95;;;8.10;99.90;;;;;;7183029;32;20110;-59
2022/01/29 10:21:30;;;;;;;12.37;10.25;;;8.10;99.90;;;;;;7177338;32;20114;-58
2022/01/29 10:25:41;;;;;;;11.82;9.18;;;8.20;99.90;;;;;;7178931;32;20256;-59
2022/01/29 10:30:00;;;;;;;12.93;9.83;;;8.20;99.90;;;;;;7180120;32;20132;-59
2022/01/29 10:34:16;;;;;;;13.93;9.13;;;8.30;99.90;;;;;;7183031;32;20144;-60
2022/01/29 10:38:24;;;;;;;12.88;9.63;;;8.30;99.90;;;;;;7182662;32;20224;-60
2022/01/29 10:42:30;;;;;;;10.98;8.30;;;8.30;99.90;;;;;;7180734;32;20200;-60
2022/01/29 10:46:32;;;;;;;14.20;8.93;;;8.40;99.90;;;;;;7179198;32;20227;-59
2022/01/29 10:50:34;;;;;;;11.40;8.65;;;8.40;99.90;;;;;;7182738;32;20129;-60
2022/01/29 10:54:39;;;;;;;12.23;8.82;;;8.40;99.90;;;;;;7182069;32;20211;-60
2022/01/29 10:58:46;;;;;;;13.32;8.50;;;8.50;99.90;;;;;;7180857;32;20132;-60
2022/01/29 11:02:48;;;;;;;12.65;9.57;;;8.40;99.90;;;;;;7176368;32;20252;-60
2022/01/29 11:06:51;;;;;;;13.18;8.57;;;8.60;99.90;;;;;;7182837;32;20106;-60
2022/01/29 11:10:53;;;;;;;11.63;8.45;;;8.60;99.90;;;;;;7183411;32;20105;-59
2022/01/29 11:15:09;;;;;;;10.85;8.45;;;8.60;99.90;;;;;;7179378;32;20667;-60
2022/01/29 11:19:11;;;;;;;11.77;8.23;;;8.50;99.90;;;;;;7180719;32;20128;-60
2022/01/29 11:23:13;;;;;;;12.32;8.82;;;8.40;99.90;;;;;;7179036;32;20109;-60
2022/01/29 11:27:24;;;;;;;9.82;7.53;;;8.40;99.90;;;;;;7181472;32;20132;-61
2022/01/29 11:31:28;;;;;;;8.68;6.80;;;8.40;99.90;;;;;;7180414;32;20124;-60
2022/01/29 11:35:31;;;;;;;10.10;7.43;;;8.40;99.90;;;;;;7175065;32;20217;-61
2022/01/29 11:39:35;;;;;;;9.63;7.37;;;8.40;99.90;;;;;;7180152;32;20470;-60
2022/01/29 11:43:38;;;;;;;9.20;6.53;;;8.50;99.90;;;;;;7175924;32;20523;-60
2022/01/29 11:47:42;;;;;;;8.02;6.35;;;8.50;99.90;;;;;;7178841;32;20130;-60
2022/01/29 11:51:51;;;;;;;7.18;5.32;;;8.50;99.90;;;;;;7175845;32;20113;-60
2022/01/29 11:55:54;;;;;;;7.55;5.03;;;8.50;99.90;;;;;;7179318;32;20114;-60
2022/01/29 12:00:16;;;;;;;6.57;4.37;;;8.60;99.90;;;;;;7176627;32;20180;-60
2022/01/29 12:04:19;;;;;;;5.93;4.32;;;8.70;99.90;;;;;;7181806;32;20310;-61
2022/01/29 12:08:21;;;;;;;3.72;2.83;;;8.70;99.90;;;;;;7181041;33;20143;-59
2022/01/29 12:12:26;;;;;;;6.50;3.33;;;8.80;99.90;;;;;;7181367;33;20477;-62
2022/01/29 12:16:47;;;;;;;3.58;2.72;;;9.00;99.90;;;;;;7182239;33;20200;-59
2022/01/29 12:20:48;;;;;;;2.83;2.08;;;9.00;99.90;;;;;;7175378;33;20116;-60
2022/01/29 12:25:04;;;;;;;2.78;2.00;;;9.00;99.90;;;;;;7181918;33;20143;-59
2022/01/29 12:29:06;;;;;;;3.60;2.15;;;9.10;99.90;;;;;;7178867;33;20128;-59
2022/01/29 12:33:20;;;;;;;3.72;1.95;;;9.20;99.90;;;;;;7180475;32;20209;-59
2022/01/29 12:37:22;;;;;;;3.85;2.03;;;9.20;99.90;;;;;;7170174;33;20138;-59
2022/01/29 12:41:28;;;;;;;3.00;2.20;;;9.20;99.90;;;;;;7180369;33;20203;-59
2022/01/29 12:45:31;;;;;;;2.10;1.90;;;9.30;99.90;;;;;;7181613;33;20102;-62
2022/01/29 12:49:42;;;;;;;2.60;2.15;;;9.40;99.90;;;;;;7179624;33;20196;-59
2022/01/29 12:53:55;;;;;;;3.28;2.28;;;9.40;99.90;;;;;;7180358;33;20110;-59
2022/01/29 12:57:57;;;;;;;2.95;2.22;;;9.50;99.90;;;;;;7175035;32;20494;-62
2022/01/29 13:02:03;;;;;;;4.85;2.12;;;9.50;99.90;;;;;;7179774;32;20251;-62
2022/01/29 13:06:08;;;;;;;2.62;1.90;;;9.50;99.90;;;;;;7163125;33;20758;-61
2022/01/29 13:10:12;;;;;;;3.65;2.15;;;9.60;99.90;;;;;;7177144;32;20188;-61
2022/01/29 13:14:19;;;;;;;3.35;1.80;;;9.60;99.90;;;;;;7179593;32;20725;-61
2022/01/29 13:18:21;;;;;;;5.57;2.60;;;9.80;99.90;;;;;;7188456;32;20180;-61
2022/01/29 13:22:27;;;;;;;2.90;2.35;;;9.80;99.90;;;;;;7187283;32;20168;-61
2022/01/29 13:26:29;;;;;;;6.40;3.80;;;9.80;99.90;;;;;;7183802;32;21587;-61
2022/01/29 13:30:32;;;;;;;6.65;4.00;;;9.80;99.90;;;;;;7183318;33;20581;-61
2022/01/29 13:34:40;;;;;;;4.00;3.00;;;9.80;99.90;;;;;;7182445;33;20117;-61
2022/01/29 13:38:42;;;;;;;2.92;1.90;;;9.80;99.90;;;;;;7185343;32;20113;-60
2022/01/29 13:42:55;;;;;;;3.80;1.70;;;9.90;99.90;;;;;;7183528;32;20114;-61
2022/01/29 13:47:08;;;;;;;3.12;1.87;;;9.80;99.90;;;;;;7176436;32;20536;-61
2022/01/29 13:51:12;;;;;;;2.72;1.85;;;9.90;99.90;;;;;;7177544;33;20113;-61
2022/01/29 13:55:14;;;;;;;3.30;1.70;;;9.80;99.90;;;;;;7184510;32;20172;-60
2022/01/29 13:59:26;;;;;;;2.85;1.67;;;9.80;99.90;;;;;;7184783;33;20105;-61
2022/01/29 14:03:48;;;;;;;3.53;1.80;;;9.80;99.90;;;;;;7182873;32;20852;-62
2022/01/29 14:07:50;;;;;;;3.78;1.60;;;9.80;99.90;;;;;;7180570;32;20109;-61
2022/01/29 14:12:21;;;;;;;5.15;2.00;;;9.80;99.90;;;;;;7182249;32;20196;-61
2022/01/29 14:16:23;;;;;;;4.80;1.90;;;9.80;99.90;;;;;;7179632;32;20113;-61
2022/01/29 14:20:26;;;;;;;3.03;1.90;;;9.80;99.90;;;;;;7180644;32;20128;-61
2022/01/29 14:24:28;;;;;;;2.30;1.52;;;9.80;99.90;;;;;;7182473;32;20195;-61
2022/01/29 14:28:30;;;;;;;1.80;1.48;;;9.80;99.90;;;;;;7182967;32;20559;-61
2022/01/29 14:32:32;;;;;;;6.15;2.05;;;9.80;99.90;;;;;;7183868;32;20137;-61
2022/01/29 14:36:36;;;;;;;5.03;1.80;;;9.80;99.90;;;;;;7180339;32;20192;-61
2022/01/29 14:40:38;;;;;;;3.60;1.90;;;9.80;99.90;;;;;;7184525;32;20197;-61
2022/01/29 14:44:43;;;;;;;4.60;2.42;;;9.80;99.90;;;;;;7182498;32;20557;-61
2022/01/29 14:48:45;;;;;;;5.87;2.30;;;9.90;99.90;;;;;;7180053;32;20159;-61
2022/01/29 14:52:46;;;;;;;4.00;2.08;;;9.90;99.90;;;;;;7179711;32;20106;-61
2022/01/29 14:56:48;;;;;;;3.92;1.98;;;9.90;99.90;;;;;;7182196;32;20215;-60
2022/01/29 15:00:50;;;;;;;3.53;1.90;;;10.00;99.90;;;;;;7176515;32;20117;-60
2022/01/29 15:04:59;;;;;;;4.12;1.60;;;10.30;99.90;;;;;;7159588;33;20113;-60
2022/01/29 15:09:01;;;;;;;4.85;2.15;;;10.30;99.90;;;;;;7162333;33;20110;-61
2022/01/29 15:13:04;;;;;;;4.55;2.37;;;10.20;99.90;;;;;;7157429;33;20110;-62
2022/01/29 15:17:06;;;;;;;5.18;2.20;;;10.10;99.90;;;;;;7157227;33;20214;-61
2022/01/29 15:21:08;;;;;;;5.50;3.00;;;10.00;99.90;;;;;;7162745;33;20117;-62
2022/01/29 15:25:10;;;;;;;5.62;3.08;;;9.90;99.90;;;;;;7158187;33;20133;-62
2022/01/29 15:29:12;;;;;;;5.15;2.97;;;9.80;99.90;;;;;;7155192;33;20110;-61
2022/01/29 15:33:16;;;;;;;8.55;3.40;;;9.80;99.90;;;;;;7157022;33;20521;-60
2022/01/29 15:37:29;;;;;;;7.35;3.80;;;9.70;99.90;;;;;;7161662;33;20197;-61
2022/01/29 15:41:30;;;;;;;6.55;3.75;;;9.60;99.90;;;;;;7143505;33;20118;-61
2022/01/29 15:45:36;;;;;;;8.50;4.18;;;9.50;99.90;;;;;;7155991;33;21013;-60
2022/01/29 15:49:38;;;;;;;6.30;4.00;;;9.50;99.90;;;;;;7146779;33;20134;-61
2022/01/29 15:53:39;;;;;;;10.75;4.00;;;9.50;99.90;;;;;;7153337;33;20110;-61
2022/01/29 15:57:41;;;;;;;8.07;3.70;;;9.50;99.90;;;;;;7159012;33;20118;-62
2022/01/29 16:01:43;;;;;;;9.68;4.28;;;9.40;99.90;;;;;;7171734;32;20189;-61
2022/01/29 16:05:47;;;;;;;10.10;4.47;;;9.50;99.90;;;;;;7181044;33;20135;-61
2022/01/29 16:09:49;;;;;;;10.20;4.85;;;9.50;99.90;;;;;;7179820;32;20200;-62
2022/01/29 16:13:50;;;;;;;7.75;4.20;;;9.40;99.90;;;;;;7180361;32;20557;-61
2022/01/29 16:17:53;;;;;;;11.12;4.80;;;9.40;99.90;;;;;;7161693;32;20267;-60
2022/01/29 16:21:55;;;;;;;9.38;4.80;;;9.40;99.90;;;;;;7176743;32;20185;-61
2022/01/29 16:25:57;;;;;;;11.68;4.95;;;9.40;99.90;;;;;;7176388;32;20204;-61
2022/01/29 16:29:58;;;;;;;9.75;5.12;;;9.40;99.90;;;;;;7171867;32;20192;-61
2022/01/29 16:34:00;;;;;;;11.93;5.80;;;9.40;99.90;;;;;;7170630;32;20732;-60
2022/01/29 16:38:04;;;;;;;6.87;4.45;;;9.40;99.90;;;;;;7178393;32;20530;-60
2022/01/29 16:42:07;;;;;;;9.10;5.55;;;9.40;99.90;;;;;;7176078;32;20108;-61
2022/01/29 16:46:09;;;;;;;9.18;5.53;;;9.50;99.90;;;;;;7178941;32;20201;-61
2022/01/29 16:50:11;;;;;;;8.13;4.50;;;9.50;99.90;;;;;;7171442;33;20136;-61
2022/01/29 16:54:12;;;;;;;9.32;4.68;;;9.50;99.90;;;;;;7162997;33;20578;-60
2022/01/29 16:58:17;;;;;;;10.27;4.70;;;9.60;99.90;;;;;;7179082;32;20127;-60
2022/01/29 17:02:19;;;;;;;8.23;4.47;;;9.60;99.90;;;;;;7181908;32;20692;-61
2022/01/29 17:06:21;;;;;;;7.47;4.37;;;9.60;99.90;;;;;;7182814;33;20144;-60
2022/01/29 17:10:26;;;;;;;10.02;3.83;;;9.70;99.90;;;;;;7182088;33;20860;-61
2022/01/29 17:14:28;;;;;;;10.32;4.47;;;9.70;99.90;;;;;;7181350;33;20569;-61
2022/01/29 17:18:30;;;;;;;7.82;3.78;;;9.70;99.90;;;;;;7178256;32;20130;-59
2022/01/29 17:22:31;;;;;;;5.37;3.58;;;9.70;99.90;;;;;;7178770;33;20254;-58
2022/01/29 17:26:33;;;;;;;10.13;4.32;;;9.80;99.90;;;;;;7173783;32;20585;-58
2022/01/29 17:30:35;;;;;;;6.15;3.33;;;9.80;99.90;;;;;;7181137;33;20875;-60
2022/01/29 17:34:38;;;;;;;8.77;3.70;;;9.80;99.90;;;;;;7179701;33;20141;-61
2022/01/29 17:38:40;;;;;;;7.03;3.20;;;9.80;99.90;;;;;;7181926;33;20851;-60
2022/01/29 17:42:43;;;;;;;8.88;3.20;;;9.80;99.90;;;;;;7178633;33;20506;-60
2022/01/29 17:46:45;;;;;;;6.95;3.60;;;9.90;99.90;;;;;;7174148;33;20135;-62
2022/01/29 17:50:47;;;;;;;8.35;3.90;;;9.80;99.90;;;;;;7174505;33;20845;-61
2022/01/29 17:54:52;;;;;;;8.90;3.78;;;9.80;99.90;;;;;;7176816;33;20279;-62
2022/01/29 17:58:53;;;;;;;8.93;3.87;;;9.80;99.90;;;;;;7175711;33;20129;-61
2022/01/29 18:02:55;;;;;;;12.07;4.40;;;9.80;99.90;;;;;;7174070;33;20110;-61
2022/01/29 18:06:57;;;;;;;6.12;3.22;;;9.80;99.90;;;;;;7170892;33;20109;-62
2022/01/29 18:11:19;;;;;;;8.52;3.97;;;9.80;99.90;;;;;;7178536;33;20291;-61
2022/01/29 18:15:21;;;;;;;6.32;3.25;;;9.80;99.90;;;;;;7173100;33;20113;-61
2022/01/29 18:19:23;;;;;;;10.40;3.90;;;9.80;99.90;;;;;;7176670;33;20878;-60
2022/01/29 18:23:25;;;;;;;8.88;3.50;;;9.80;99.90;;;;;;7173880;33;20774;-60
2022/01/29 18:27:29;;;;;;;7.25;3.70;;;9.80;99.90;;;;;;7178731;32;20197;-60
2022/01/29 18:31:31;;;;;;;7.60;3.83;;;9.80;99.90;;;;;;7181627;32;20109;-60
2022/01/29 18:35:33;;;;;;;11.77;3.85;;;9.80;99.90;;;;;;7182419;32;20121;-61
2022/01/29 18:39:41;;;;;;;7.78;3.95;;;9.80;99.90;;;;;;7183506;32;20156;-61
2022/01/29 18:44:04;;;;;;;9.05;3.83;;;9.80;99.90;;;;;;7179365;32;20174;-61
2022/01/29 18:48:06;;;;;;;7.28;3.97;;;9.90;99.90;;;;;;7176458;32;20109;-60
2022/01/29 18:52:08;;;;;;;13.70;3.90;;;9.80;99.90;;;;;;7167343;33;20097;-61
2022/01/29 18:56:11;;;;;;;15.57;3.30;;;9.50;99.90;;;;;;7183792;32;20117;-61
2022/01/29 19:00:14;;;;;;;15.07;3.22;;;9.40;99.90;;;;;;7164570;32;20121;-60
2022/01/29 19:04:15;;;;;;;17.25;3.42;;;9.50;99.90;;;;;;7179251;33;20260;-60
2022/01/29 19:08:20;;;;;;;16.40;3.70;;;9.50;99.90;;;;;;7179000;32;20105;-61
2022/01/29 19:12:22;;;;;;;19.25;3.55;;;9.50;99.90;;;;;;7178144;32;20602;-61
2022/01/29 19:16:24;;;;;;;15.18;3.15;;;9.40;99.90;;;;;;7176563;32;20109;-60
2022/01/29 19:20:27;;;;;;;17.60;3.50;;;9.40;99.90;;;;;;7176761;32;20117;-61
2022/01/29 19:24:30;;;;;;;13.15;2.75;;;9.40;99.90;;;;;;7175990;32;20613;-61
2022/01/29 19:28:32;;;;;;;16.90;2.70;;;9.40;99.90;;;;;;7174341;32;20106;-60
2022/01/29 19:32:34;;;;;;;16.00;2.67;;;9.40;99.90;;;;;;7176226;32;22772;-61
2022/01/29 19:36:36;;;;;;;19.45;3.22;;;9.30;99.90;;;;;;7180083;32;20765;-61
2022/01/29 19:40:38;;;;;;;14.90;3.08;;;9.30;99.90;;;;;;7177941;32;20106;-60
2022/01/29 19:44:42;;;;;;;17.08;3.45;;;9.20;99.90;;;;;;7164345;32;20126;-60
2022/01/29 19:48:48;;;;;;;22.52;2.95;;;9.10;99.90;;;;;;7172951;32;20204;-61
2022/01/29 19:52:51;;;;;;;22.85;3.15;;;9.10;99.90;;;;;;7173072;33;20153;-61
2022/01/29 19:56:53;;;;;;;16.40;2.70;;;9.00;99.90;;;;;;7179723;33;20118;-61
2022/01/29 20:00:55;;;;;;;16.83;2.60;;;8.90;99.90;;;;;;7177470;33;20129;-61
2022/01/29 20:04:57;;;;;;;16.65;2.83;;;8.80;99.90;;;;;;7181966;33;20131;-60
2022/01/29 20:09:00;;;;;;;18.77;3.53;;;8.80;99.90;;;;;;7181482;33;20207;-62
2022/01/29 20:13:01;;;;;;;18.85;3.05;;;8.70;99.90;;;;;;7179903;33;20215;-63
2022/01/29 20:17:04;;;;;;;16.40;2.83;;;8.70;99.90;;;;;;7176971;33;20098;-62
2022/01/29 20:21:06;;;;;;;19.60;2.70;;;8.70;99.90;;;;;;7178689;33;20203;-62
2022/01/29 20:25:10;;;;;;;19.25;2.92;;;8.60;99.90;;;;;;7176203;33;20549;-62
2022/01/29 20:29:15;;;;;;;22.73;3.70;;;8.50;99.90;;;;;;7177324;33;20109;-60
2022/01/29 20:33:17;;;;;;;23.00;3.53;;;8.50;99.90;;;;;;7180002;33;20236;-62
2022/01/29 20:37:19;;;;;;;17.48;3.33;;;8.30;99.90;;;;;;7176941;33;20473;-61
2022/01/29 20:41:20;;;;;;;14.43;2.58;;;8.30;99.90;;;;;;7179197;33;20478;-62
2022/01/29 20:45:22;;;;;;;19.87;3.25;;;8.20;99.90;;;;;;7176495;33;20648;-61
2022/01/29 20:49:24;;;;;;;18.73;3.05;;;8.20;99.90;;;;;;7177764;32;20560;-62
2022/01/29 20:53:30;;;;;;;19.95;3.17;;;8.20;99.90;;;;;;7179861;33;20132;-61
2022/01/29 20:57:32;;;;;;;16.48;3.47;;;8.20;99.90;;;;;;7173003;33;20267;-62
2022/01/29 21:01:35;;;;;;;16.00;2.85;;;8.30;99.90;;;;;;7176253;33;20106;-61
2022/01/29 21:05:37;;;;;;;18.00;3.83;;;8.30;99.90;;;;;;7181298;33;20151;-63
2022/01/29 21:09:39;;;;;;;25.90;3.62;;;8.30;99.90;;;;;;7172603;32;20252;-61
2022/01/29 21:13:41;;;;;;;20.85;3.55;;;8.30;99.90;;;;;;7172714;33;20106;-60
2022/01/29 21:17:44;;;;;;;24.37;3.80;;;8.30;99.90;;;;;;7173665;33;20550;-62
2022/01/29 21:21:45;;;;;;;18.98;3.08;;;8.20;99.90;;;;;;7162093;33;20171;-63